sensor_id;sensor_type;location;lat;lon;timestamp;pressure;altitude;pressure_sealevel;temperature;humidity
10946;BME280;5525;42.648;23.368;2022-08-01T00:01:34;94541.63;;;19.41;69.97
10946;BME280;5525;42.648;23.368;2022-08-01T00:04:03;94538.53;;;19.42;70.00
10946;BME280;5525;42.648;23.368;2022-08-01T00:06:30;94527.91;;;19.37;68.75
10946;BME280;5525;42.648;23.368;2022-08-01T00:08:57;94529.44;;;19.31;68.79
10946;BME280;5525;42.648;23.368;2022-08-01T00:11:25;94545.59;;;19.43;68.94
10946;BME280;5525;42.648;23.368;2022-08-01T00:13:52;94531.81;;;19.33;67.33
10946;BME280;5525;42.648;23.368;2022-08-01T00:16:19;94532.53;;;19.26;66.96
10946;BME280;5525;42.648;23.368;2022-08-01T00:18:48;94547.00;;;19.27;66.11
10946;BME280;5525;42.648;23.368;2022-08-01T00:21:16;94554.00;;;19.17;67.38
10946;BME280;5525;42.648;23.368;2022-08-01T00:23:43;94561.78;;;19.15;66.35
10946;BME280;5525;42.648;23.368;2022-08-01T00:26:10;94567.59;;;19.10;66.38
10946;BME280;5525;42.648;23.368;2022-08-01T00:28:37;94568.41;;;19.11;65.94
10946;BME280;5525;42.648;23.368;2022-08-01T00:31:04;94553.03;;;18.99;66.04
10946;BME280;5525;42.648;23.368;2022-08-01T00:33:31;94564.38;;;18.98;65.85
10946;BME280;5525;42.648;23.368;2022-08-01T00:35:58;94561.63;;;18.94;67.14
10946;BME280;5525;42.648;23.368;2022-08-01T00:38:26;94563.09;;;18.85;70.06
10946;BME280;5525;42.648;23.368;2022-08-01T00:40:53;94568.13;;;18.79;77.48
10946;BME280;5525;42.648;23.368;2022-08-01T00:43:20;94571.84;;;18.57;83.42
10946;BME280;5525;42.648;23.368;2022-08-01T00:45:47;94549.22;;;18.27;88.10
10946;BME280;5525;42.648;23.368;2022-08-01T00:48:14;94579.66;;;18.22;91.16
10946;BME280;5525;42.648;23.368;2022-08-01T00:50:41;94570.03;;;18.02;94.48
10946;BME280;5525;42.648;23.368;2022-08-01T00:53:09;94567.53;;;17.90;97.43
10946;BME280;5525;42.648;23.368;2022-08-01T00:55:38;94562.25;;;17.71;99.71
10946;BME280;5525;42.648;23.368;2022-08-01T00:58:05;94523.53;;;17.36;100.00
10946;BME280;5525;42.648;23.368;2022-08-01T01:00:33;94559.78;;;17.62;100.00
10946;BME280;5525;42.648;23.368;2022-08-01T01:03:01;94555.16;;;17.66;100.00
10946;BME280;5525;42.648;23.368;2022-08-01T01:05:28;94560.84;;;17.54;100.00
10946;BME280;5525;42.648;23.368;2022-08-01T01:07:59;94553.91;;;17.60;100.00
10946;BME280;5525;42.648;23.368;2022-08-01T01:10:31;94534.75;;;17.57;100.00
10946;BME280;5525;42.648;23.368;2022-08-01T01:13:04;94533.06;;;17.49;100.00
10946;BME280;5525;42.648;23.368;2022-08-01T01:15:34;94537.34;;;17.46;100.00
10946;BME280;5525;42.648;23.368;2022-08-01T01:18:09;94547.97;;;17.55;100.00
10946;BME280;5525;42.648;23.368;2022-08-01T01:20:40;94523.03;;;17.30;100.00
10946;BME280;5525;42.648;23.368;2022-08-01T01:23:18;94545.31;;;17.32;100.00
10946;BME280;5525;42.648;23.368;2022-08-01T01:26:04;94546.03;;;17.29;100.00
10946;BME280;5525;42.648;23.368;2022-08-01T01:31:36;94543.03;;;17.12;100.00
10946;BME280;5525;42.648;23.368;2022-08-01T01:34:07;94534.47;;;17.10;100.00
10946;BME280;5525;42.648;23.368;2022-08-01T01:36:37;94534.59;;;16.94;100.00
10946;BME280;5525;42.648;23.368;2022-08-01T01:39:05;94528.50;;;17.04;100.00
10946;BME280;5525;42.648;23.368;2022-08-01T01:41:35;94518.84;;;16.84;100.00
10946;BME280;5525;42.648;23.368;2022-08-01T01:44:04;94515.63;;;16.52;100.00
10946;BME280;5525;42.648;23.368;2022-08-01T01:46:33;94486.94;;;16.39;100.00
10946;BME280;5525;42.648;23.368;2022-08-01T01:49:02;94517.00;;;16.65;100.00
10946;BME280;5525;42.648;23.368;2022-08-01T01:51:30;94524.09;;;16.47;100.00
10946;BME280;5525;42.648;23.368;2022-08-01T01:53:58;94513.47;;;16.42;100.00
10946;BME280;5525;42.648;23.368;2022-08-01T01:56:27;94524.66;;;16.56;100.00
10946;BME280;5525;42.648;23.368;2022-08-01T01:58:59;94522.22;;;16.51;100.00
10946;BME280;5525;42.648;23.368;2022-08-01T02:01:29;94507.25;;;16.64;100.00
10946;BME280;5525;42.648;23.368;2022-08-01T02:03:59;94516.75;;;16.74;100.00
10946;BME280;5525;42.648;23.368;2022-08-01T02:06:30;94513.31;;;16.77;100.00
10946;BME280;5525;42.648;23.368;2022-08-01T02:09:00;94489.91;;;16.76;100.00
10946;BME280;5525;42.648;23.368;2022-08-01T02:11:28;94509.94;;;16.87;100.00
10946;BME280;5525;42.648;23.368;2022-08-01T02:13:58;94505.66;;;16.86;100.00
10946;BME280;5525;42.648;23.368;2022-08-01T02:16:31;94499.25;;;17.01;100.00
10946;BME280;5525;42.648;23.368;2022-08-01T02:19:01;94478.97;;;16.72;100.00
10946;BME280;5525;42.648;23.368;2022-08-01T02:21:32;94486.06;;;16.80;100.00
10946;BME280;5525;42.648;23.368;2022-08-01T02:24:07;94494.81;;;16.90;97.51
10946;BME280;5525;42.648;23.368;2022-08-01T02:26:36;94496.63;;;16.82;100.00
10946;BME280;5525;42.648;23.368;2022-08-01T02:29:07;94498.19;;;16.83;100.00
10946;BME280;5525;42.648;23.368;2022-08-01T02:31:39;94506.84;;;16.88;100.00
10946;BME280;5525;42.648;23.368;2022-08-01T02:34:13;94485.59;;;16.75;100.00
10946;BME280;5525;42.648;23.368;2022-08-01T02:36:44;94505.66;;;16.86;100.00
10946;BME280;5525;42.648;23.368;2022-08-01T02:39:14;94508.31;;;16.82;100.00
10946;BME280;5525;42.648;23.368;2022-08-01T02:41:44;94461.22;;;16.59;100.00
10946;BME280;5525;42.648;23.368;2022-08-01T02:44:18;94499.53;;;16.93;100.00
10946;BME280;5525;42.648;23.368;2022-08-01T02:46:51;94500.78;;;16.99;100.00
10946;BME280;5525;42.648;23.368;2022-08-01T02:49:20;94493.56;;;16.87;100.00
10946;BME280;5525;42.648;23.368;2022-08-01T02:51:49;94487.59;;;16.78;100.00
10946;BME280;5525;42.648;23.368;2022-08-01T02:54:18;94508.09;;;16.95;100.00
10946;BME280;5525;42.648;23.368;2022-08-01T02:56:47;94497.09;;;16.88;100.00
10946;BME280;5525;42.648;23.368;2022-08-01T02:59:18;94483.41;;;16.84;100.00
10946;BME280;5525;42.648;23.368;2022-08-01T03:01:46;94497.16;;;16.91;100.00
10946;BME280;5525;42.648;23.368;2022-08-01T03:04:14;94453.47;;;16.61;100.00
10946;BME280;5525;42.648;23.368;2022-08-01T03:06:44;94487.34;;;16.87;100.00
10946;BME280;5525;42.648;23.368;2022-08-01T03:09:12;94485.25;;;16.76;100.00
10946;BME280;5525;42.648;23.368;2022-08-01T03:11:41;94478.59;;;16.74;100.00
10946;BME280;5525;42.648;23.368;2022-08-01T03:14:10;94509.94;;;16.87;100.00
10946;BME280;5525;42.648;23.368;2022-08-01T03:16:40;94492.00;;;16.86;100.00
10946;BME280;5525;42.648;23.368;2022-08-01T03:19:09;94481.56;;;16.65;100.00
10946;BME280;5525;42.648;23.368;2022-08-01T03:21:38;94511.25;;;16.97;100.00
10946;BME280;5525;42.648;23.368;2022-08-01T03:24:09;94506.44;;;16.87;100.00
10946;BME280;5525;42.648;23.368;2022-08-01T03:26:38;94504.81;;;16.82;100.00
10946;BME280;5525;42.648;23.368;2022-08-01T03:29:09;94502.44;;;16.80;100.00
10946;BME280;5525;42.648;23.368;2022-08-01T03:31:38;94515.72;;;16.82;100.00
10946;BME280;5525;42.648;23.368;2022-08-01T03:34:08;94517.16;;;16.76;100.00
10946;BME280;5525;42.648;23.368;2022-08-01T03:36:41;94503.44;;;16.69;100.00
10946;BME280;5525;42.648;23.368;2022-08-01T03:39:11;94516.56;;;16.86;100.00
10946;BME280;5525;42.648;23.368;2022-08-01T03:41:43;94504.03;;;16.81;100.00
10946;BME280;5525;42.648;23.368;2022-08-01T03:44:14;94504.47;;;16.87;100.00
10946;BME280;5525;42.648;23.368;2022-08-01T03:46:45;94527.47;;;16.86;100.00
10946;BME280;5525;42.648;23.368;2022-08-01T03:49:17;94517.97;;;16.76;100.00
10946;BME280;5525;42.648;23.368;2022-08-01T03:51:47;94522.84;;;16.90;100.00
10946;BME280;5525;42.648;23.368;2022-08-01T03:54:21;94518.03;;;17.06;100.00
10946;BME280;5525;42.648;23.368;2022-08-01T03:56:49;94504.25;;;16.96;100.00
10946;BME280;5525;42.648;23.368;2022-08-01T03:59:18;94522.31;;;17.07;100.00
10946;BME280;5525;42.648;23.368;2022-08-01T04:01:46;94507.50;;;17.05;100.00
10946;BME280;5525;42.648;23.368;2022-08-01T04:04:13;94503.06;;;16.97;100.00
10946;BME280;5525;42.648;23.368;2022-08-01T04:06:40;94518.91;;;17.14;100.00
10946;BME280;5525;42.648;23.368;2022-08-01T04:09:09;94518.78;;;17.92;95.18
10946;BME280;5525;42.648;23.368;2022-08-01T04:11:38;94507.75;;;19.05;82.64
10946;BME280;5525;42.648;23.368;2022-08-01T04:14:06;94508.38;;;20.25;73.66
10946;BME280;5525;42.648;23.368;2022-08-01T04:16:33;94517.47;;;21.20;64.30
10946;BME280;5525;42.648;23.368;2022-08-01T04:19:00;94523.44;;;22.29;58.08
10946;BME280;5525;42.648;23.368;2022-08-01T04:21:28;94511.94;;;23.03;52.95
10946;BME280;5525;42.648;23.368;2022-08-01T04:23:59;94518.06;;;23.65;49.31
10946;BME280;5525;42.648;23.368;2022-08-01T04:26:32;94503.34;;;23.79;47.49
10946;BME280;5525;42.648;23.368;2022-08-01T04:29:04;94532.16;;;24.71;45.46
10946;BME280;5525;42.648;23.368;2022-08-01T04:31:33;94529.66;;;25.76;42.57
10946;BME280;5525;42.648;23.368;2022-08-01T04:34:03;94525.66;;;26.39;40.72
10946;BME280;5525;42.648;23.368;2022-08-01T04:36:32;94528.72;;;26.06;41.17
10946;BME280;5525;42.648;23.368;2022-08-01T04:39:01;94529.56;;;27.29;38.73
10946;BME280;5525;42.648;23.368;2022-08-01T04:41:30;94529.16;;;27.75;37.56
10946;BME280;5525;42.648;23.368;2022-08-01T04:43:57;94533.81;;;27.66;37.68
10946;BME280;5525;42.648;23.368;2022-08-01T04:46:27;94510.53;;;27.92;37.01
10946;BME280;5525;42.648;23.368;2022-08-01T04:48:55;94532.81;;;27.72;38.08
10946;BME280;5525;42.648;23.368;2022-08-01T04:51:23;94528.91;;;29.22;35.95
10946;BME280;5525;42.648;23.368;2022-08-01T04:53:50;94539.41;;;30.24;34.37
10946;BME280;5525;42.648;23.368;2022-08-01T04:56:17;94544.00;;;30.82;32.61
10946;BME280;5525;42.648;23.368;2022-08-01T04:58:46;94545.94;;;30.51;32.41
10946;BME280;5525;42.648;23.368;2022-08-01T05:01:13;94495.50;;;31.10;30.88
10946;BME280;5525;42.648;23.368;2022-08-01T05:03:41;94530.31;;;31.94;30.69
10946;BME280;5525;42.648;23.368;2022-08-01T05:06:09;94529.22;;;31.34;30.56
10946;BME280;5525;42.648;23.368;2022-08-01T05:08:36;94524.94;;;31.11;31.96
10946;BME280;5525;42.648;23.368;2022-08-01T05:11:03;94519.69;;;31.62;30.65
10946;BME280;5525;42.648;23.368;2022-08-01T05:13:30;94526.50;;;30.05;32.11
10946;BME280;5525;42.648;23.368;2022-08-01T05:15:57;94523.59;;;30.42;31.18
10946;BME280;5525;42.648;23.368;2022-08-01T05:18:24;94529.41;;;30.57;30.45
10946;BME280;5525;42.648;23.368;2022-08-01T05:20:52;94502.75;;;29.44;32.20
10946;BME280;5525;42.648;23.368;2022-08-01T05:23:19;94521.59;;;30.21;31.37
10946;BME280;5525;42.648;23.368;2022-08-01T05:25:45;94499.53;;;29.80;31.70
10946;BME280;5525;42.648;23.368;2022-08-01T05:28:14;94518.50;;;30.07;31.32
10946;BME280;5525;42.648;23.368;2022-08-01T05:30:40;94517.16;;;31.06;29.86
10946;BME280;5525;42.648;23.368;2022-08-01T05:33:07;94518.41;;;31.05;29.49
10946;BME280;5525;42.648;23.368;2022-08-01T05:35:34;94528.41;;;30.94;30.13
10946;BME280;5525;42.648;23.368;2022-08-01T05:38:02;94517.25;;;31.82;29.12
10946;BME280;5525;42.648;23.368;2022-08-01T05:40:29;94511.31;;;31.62;28.40
10946;BME280;5525;42.648;23.368;2022-08-01T05:42:56;94516.81;;;32.02;28.09
10946;BME280;5525;42.648;23.368;2022-08-01T05:45:23;94520.88;;;31.43;28.16
10946;BME280;5525;42.648;23.368;2022-08-01T05:47:50;94529.34;;;32.79;26.95
10946;BME280;5525;42.648;23.368;2022-08-01T05:50:17;94515.13;;;32.49;26.57
10946;BME280;5525;42.648;23.368;2022-08-01T05:52:43;94531.41;;;32.51;26.58
10946;BME280;5525;42.648;23.368;2022-08-01T05:55:12;94533.13;;;32.48;27.21
10946;BME280;5525;42.648;23.368;2022-08-01T05:57:39;94537.25;;;33.49;25.65
10946;BME280;5525;42.648;23.368;2022-08-01T06:00:07;94514.00;;;32.65;26.11
10946;BME280;5525;42.648;23.368;2022-08-01T06:02:34;94529.88;;;32.41;26.21
10946;BME280;5525;42.648;23.368;2022-08-01T06:05:00;94531.56;;;33.25;25.00
10946;BME280;5525;42.648;23.368;2022-08-01T06:07:27;94524.16;;;33.78;24.26
10946;BME280;5525;42.648;23.368;2022-08-01T06:09:54;94512.63;;;34.09;24.35
10946;BME280;5525;42.648;23.368;2022-08-01T06:12:22;94525.44;;;32.94;25.38
10946;BME280;5525;42.648;23.368;2022-08-01T06:14:49;94525.59;;;33.00;25.09
10946;BME280;5525;42.648;23.368;2022-08-01T06:17:16;94509.84;;;32.06;25.75
10946;BME280;5525;42.648;23.368;2022-08-01T06:19:43;94503.47;;;31.97;25.13
10946;BME280;5525;42.648;23.368;2022-08-01T06:22:09;94528.75;;;30.74;26.52
10946;BME280;5525;42.648;23.368;2022-08-01T06:24:36;94537.69;;;30.69;27.57
10946;BME280;5525;42.648;23.368;2022-08-01T06:27:03;94498.59;;;31.52;25.99
10946;BME280;5525;42.648;23.368;2022-08-01T06:29:31;94525.06;;;31.08;26.69
10946;BME280;5525;42.648;23.368;2022-08-01T06:31:58;94512.56;;;30.60;26.82
10946;BME280;5525;42.648;23.368;2022-08-01T06:34:25;94514.94;;;30.71;27.38
10946;BME280;5525;42.648;23.368;2022-08-01T06:36:52;94530.00;;;31.35;26.13
10946;BME280;5525;42.648;23.368;2022-08-01T06:39:19;94507.50;;;31.87;26.03
10946;BME280;5525;42.648;23.368;2022-08-01T06:41:46;94521.81;;;32.52;25.03
10946;BME280;5525;42.648;23.368;2022-08-01T06:44:13;94524.28;;;33.19;24.58
10946;BME280;5525;42.648;23.368;2022-08-01T06:46:41;94505.13;;;33.26;23.86
10946;BME280;5525;42.648;23.368;2022-08-01T06:49:09;94508.28;;;33.19;24.15
10946;BME280;5525;42.648;23.368;2022-08-01T06:51:35;94522.06;;;34.35;23.04
10946;BME280;5525;42.648;23.368;2022-08-01T06:54:02;94467.63;;;31.95;24.95
10946;BME280;5525;42.648;23.368;2022-08-01T06:56:30;94487.91;;;33.19;24.55
10946;BME280;5525;42.648;23.368;2022-08-01T06:58:57;94483.41;;;34.54;23.25
10946;BME280;5525;42.648;23.368;2022-08-01T07:01:26;94502.22;;;34.24;23.44
10946;BME280;5525;42.648;23.368;2022-08-01T07:03:55;94453.63;;;33.33;24.07
10946;BME280;5525;42.648;23.368;2022-08-01T07:06:23;94495.06;;;33.11;24.42
10946;BME280;5525;42.648;23.368;2022-08-01T07:08:50;94495.84;;;32.15;25.44
10946;BME280;5525;42.648;23.368;2022-08-01T07:11:17;94482.31;;;31.60;26.08
10946;BME280;5525;42.648;23.368;2022-08-01T07:13:44;94496.81;;;32.30;25.93
10946;BME280;5525;42.648;23.368;2022-08-01T07:16:11;94477.56;;;31.96;26.13
10946;BME280;5525;42.648;23.368;2022-08-01T07:18:38;94473.13;;;31.41;26.57
10946;BME280;5525;42.648;23.368;2022-08-01T07:21:07;94492.81;;;31.38;26.68
10946;BME280;5525;42.648;23.368;2022-08-01T07:23:34;94490.84;;;30.55;28.20
10946;BME280;5525;42.648;23.368;2022-08-01T07:26:02;94489.03;;;31.23;27.70
10946;BME280;5525;42.648;23.368;2022-08-01T07:28:29;94493.34;;;32.72;26.42
10946;BME280;5525;42.648;23.368;2022-08-01T07:30:56;94486.44;;;34.12;24.70
10946;BME280;5525;42.648;23.368;2022-08-01T07:33:23;94505.31;;;35.08;23.48
10946;BME280;5525;42.648;23.368;2022-08-01T07:35:50;94503.91;;;34.07;24.65
10946;BME280;5525;42.648;23.368;2022-08-01T07:38:18;94476.19;;;32.88;25.03
10946;BME280;5525;42.648;23.368;2022-08-01T07:40:45;94491.00;;;31.62;26.87
10946;BME280;5525;42.648;23.368;2022-08-01T07:43:11;94491.00;;;31.13;26.78
10946;BME280;5525;42.648;23.368;2022-08-01T07:45:39;94492.50;;;33.63;24.84
10946;BME280;5525;42.648;23.368;2022-08-01T07:48:07;94498.97;;;34.02;23.90
10946;BME280;5525;42.648;23.368;2022-08-01T07:50:34;94506.59;;;34.01;23.84
10946;BME280;5525;42.648;23.368;2022-08-01T07:53:01;94480.47;;;33.72;24.35
10946;BME280;5525;42.648;23.368;2022-08-01T07:55:30;94509.00;;;34.99;23.82
10946;BME280;5525;42.648;23.368;2022-08-01T07:57:57;94475.50;;;34.38;22.87
10946;BME280;5525;42.648;23.368;2022-08-01T08:00:24;94472.09;;;33.72;24.38
10946;BME280;5525;42.648;23.368;2022-08-01T08:02:51;94504.00;;;33.65;24.08
10946;BME280;5525;42.648;23.368;2022-08-01T08:05:19;94496.59;;;32.70;25.10
10946;BME280;5525;42.648;23.368;2022-08-01T08:07:46;94490.47;;;33.40;24.62
10946;BME280;5525;42.648;23.368;2022-08-01T08:10:12;94492.16;;;33.94;23.52
10946;BME280;5525;42.648;23.368;2022-08-01T08:12:41;94502.59;;;33.37;24.49
10946;BME280;5525;42.648;23.368;2022-08-01T08:15:08;94469.41;;;32.61;25.35
10946;BME280;5525;42.648;23.368;2022-08-01T08:17:35;94473.19;;;32.31;25.47
10946;BME280;5525;42.648;23.368;2022-08-01T08:20:04;94499.16;;;34.37;23.56
10946;BME280;5525;42.648;23.368;2022-08-01T08:22:31;94499.94;;;33.34;24.37
10946;BME280;5525;42.648;23.368;2022-08-01T08:24:58;94502.47;;;33.64;24.91
10946;BME280;5525;42.648;23.368;2022-08-01T08:27:25;94508.13;;;34.64;23.76
10946;BME280;5525;42.648;23.368;2022-08-01T08:29:54;94508.16;;;34.02;23.82
10946;BME280;5525;42.648;23.368;2022-08-01T08:32:20;94494.41;;;32.74;25.45
10946;BME280;5525;42.648;23.368;2022-08-01T08:34:47;94493.88;;;33.44;24.52
10946;BME280;5525;42.648;23.368;2022-08-01T08:37:14;94507.00;;;33.20;24.90
10946;BME280;5525;42.648;23.368;2022-08-01T08:39:42;94490.06;;;33.80;23.77
10946;BME280;5525;42.648;23.368;2022-08-01T08:42:10;94499.91;;;33.99;24.15
10946;BME280;5525;42.648;23.368;2022-08-01T08:44:37;94505.97;;;36.41;21.89
10946;BME280;5525;42.648;23.368;2022-08-01T08:47:07;94496.72;;;38.27;19.28
10946;BME280;5525;42.648;23.368;2022-08-01T08:49:35;94500.16;;;37.58;19.82
10946;BME280;5525;42.648;23.368;2022-08-01T08:52:03;94495.56;;;37.24;20.46
10946;BME280;5525;42.648;23.368;2022-08-01T08:54:32;94499.75;;;36.57;20.31
10946;BME280;5525;42.648;23.368;2022-08-01T08:57:01;94499.75;;;36.32;20.54
10946;BME280;5525;42.648;23.368;2022-08-01T08:59:29;94492.69;;;36.42;21.49
10946;BME280;5525;42.648;23.368;2022-08-01T09:01:56;94513.06;;;36.37;20.84
10946;BME280;5525;42.648;23.368;2022-08-01T09:04:26;94456.25;;;35.03;22.01
10946;BME280;5525;42.648;23.368;2022-08-01T09:06:53;94495.16;;;35.94;20.33
10946;BME280;5525;42.648;23.368;2022-08-01T09:09:21;94481.75;;;36.49;20.27
10946;BME280;5525;42.648;23.368;2022-08-01T09:11:48;94495.06;;;36.29;20.63
10946;BME280;5525;42.648;23.368;2022-08-01T09:14:16;94491.97;;;35.03;21.83
10946;BME280;5525;42.648;23.368;2022-08-01T09:17:00;94479.75;;;34.09;21.87
10946;BME280;5525;42.648;23.368;2022-08-01T09:19:36;94478.28;;;32.60;23.39
10946;BME280;5525;42.648;23.368;2022-08-01T09:22:05;94461.00;;;33.21;22.74
10946;BME280;5525;42.648;23.368;2022-08-01T09:24:33;94472.19;;;33.21;22.93
10946;BME280;5525;42.648;23.368;2022-08-01T09:27:01;94443.91;;;33.52;22.90
10946;BME280;5525;42.648;23.368;2022-08-01T09:29:29;94466.34;;;33.66;23.33
10946;BME280;5525;42.648;23.368;2022-08-01T09:31:57;94452.09;;;34.99;21.24
10946;BME280;5525;42.648;23.368;2022-08-01T09:34:26;94458.13;;;35.96;20.33
10946;BME280;5525;42.648;23.368;2022-08-01T09:36:56;94469.41;;;34.97;20.79
10946;BME280;5525;42.648;23.368;2022-08-01T09:39:26;94483.13;;;35.73;20.24
10946;BME280;5525;42.648;23.368;2022-08-01T09:41:54;94465.38;;;35.67;20.38
10946;BME280;5525;42.648;23.368;2022-08-01T09:44:37;94453.09;;;35.65;21.04
10946;BME280;5525;42.648;23.368;2022-08-01T09:47:05;94436.72;;;36.24;19.83
10946;BME280;5525;42.648;23.368;2022-08-01T09:49:33;94438.69;;;35.78;20.10
10946;BME280;5525;42.648;23.368;2022-08-01T09:52:13;94470.09;;;34.78;21.40
10946;BME280;5525;42.648;23.368;2022-08-01T09:54:41;94463.78;;;34.54;21.68
10946;BME280;5525;42.648;23.368;2022-08-01T09:57:13;94465.19;;;34.87;21.55
10946;BME280;5525;42.648;23.368;2022-08-01T09:59:41;94424.03;;;34.84;21.32
10946;BME280;5525;42.648;23.368;2022-08-01T10:02:10;94463.56;;;35.15;21.54
10946;BME280;5525;42.648;23.368;2022-08-01T10:04:47;94464.34;;;35.65;21.51
10946;BME280;5525;42.648;23.368;2022-08-01T10:07:16;94459.72;;;34.98;22.77
10946;BME280;5525;42.648;23.368;2022-08-01T10:09:43;94475.88;;;35.67;21.16
10946;BME280;5525;42.648;23.368;2022-08-01T10:12:13;94425.94;;;33.82;22.98
10946;BME280;5525;42.648;23.368;2022-08-01T10:14:40;94456.13;;;32.11;24.66
10946;BME280;5525;42.648;23.368;2022-08-01T10:17:08;94434.19;;;34.00;22.76
10946;BME280;5525;42.648;23.368;2022-08-01T10:19:36;94422.69;;;34.51;22.25
10946;BME280;5525;42.648;23.368;2022-08-01T10:22:07;94390.69;;;34.43;22.74
10946;BME280;5525;42.648;23.368;2022-08-01T10:24:37;94433.81;;;36.38;20.86
10946;BME280;5525;42.648;23.368;2022-08-01T10:27:06;94438.75;;;35.63;21.13
10946;BME280;5525;42.648;23.368;2022-08-01T10:29:37;94443.13;;;32.77;23.63
10946;BME280;5525;42.648;23.368;2022-08-01T10:32:07;94440.94;;;34.75;21.87
10946;BME280;5525;42.648;23.368;2022-08-01T10:34:35;94447.09;;;35.37;21.44
10946;BME280;5525;42.648;23.368;2022-08-01T10:37:03;94447.34;;;35.05;22.22
10946;BME280;5525;42.648;23.368;2022-08-01T10:39:30;94445.72;;;35.33;21.55
10946;BME280;5525;42.648;23.368;2022-08-01T10:42:01;94418.47;;;35.19;22.78
10946;BME280;5525;42.648;23.368;2022-08-01T10:44:31;94447.19;;;35.63;22.32
10946;BME280;5525;42.648;23.368;2022-08-01T10:47:03;94437.63;;;35.35;21.84
10946;BME280;5525;42.648;23.368;2022-08-01T10:49:34;94403.53;;;34.93;22.50
10946;BME280;5525;42.648;23.368;2022-08-01T10:52:03;94430.75;;;35.21;22.56
10946;BME280;5525;42.648;23.368;2022-08-01T10:54:38;94412.28;;;33.98;23.69
10946;BME280;5525;42.648;23.368;2022-08-01T10:57:07;94376.59;;;35.35;21.21
10946;BME280;5525;42.648;23.368;2022-08-01T10:59:36;94431.81;;;35.58;21.85
10946;BME280;5525;42.648;23.368;2022-08-01T11:02:25;94415.16;;;34.42;22.43
10946;BME280;5525;42.648;23.368;2022-08-01T11:04:56;94435.94;;;34.94;22.53
10946;BME280;5525;42.648;23.368;2022-08-01T11:07:42;94440.97;;;35.04;22.38
10946;BME280;5525;42.648;23.368;2022-08-01T11:10:16;94419.91;;;35.84;21.21
10946;BME280;5525;42.648;23.368;2022-08-01T11:12:47;94416.94;;;34.16;23.30
10946;BME280;5525;42.648;23.368;2022-08-01T11:15:22;94416.50;;;33.94;23.58
10946;BME280;5525;42.648;23.368;2022-08-01T11:17:53;94418.56;;;33.70;23.81
10946;BME280;5525;42.648;23.368;2022-08-01T11:20:22;94416.13;;;33.39;24.38
10946;BME280;5525;42.648;23.368;2022-08-01T11:23:23;94392.97;;;34.15;22.84
10946;BME280;5525;42.648;23.368;2022-08-01T11:26:14;94390.34;;;32.70;24.64
10946;BME280;5525;42.648;23.368;2022-08-01T11:28:45;94402.25;;;32.80;24.86
10946;BME280;5525;42.648;23.368;2022-08-01T11:31:30;94395.72;;;32.41;25.22
10946;BME280;5525;42.648;23.368;2022-08-01T11:33:59;94404.41;;;32.94;25.54
10946;BME280;5525;42.648;23.368;2022-08-01T11:36:26;94410.03;;;32.76;25.15
10946;BME280;5525;42.648;23.368;2022-08-01T11:39:16;94368.00;;;31.38;26.81
10946;BME280;5525;42.648;23.368;2022-08-01T11:41:45;94381.00;;;32.13;25.70
10946;BME280;5525;42.648;23.368;2022-08-01T11:44:15;94402.72;;;32.09;25.95
10946;BME280;5525;42.648;23.368;2022-08-01T11:46:54;94395.75;;;32.74;25.45
10946;BME280;5525;42.648;23.368;2022-08-01T11:52:17;94371.25;;;32.00;26.21
10946;BME280;5525;42.648;23.368;2022-08-01T11:54:46;94385.75;;;32.31;26.47
10946;BME280;5525;42.648;23.368;2022-08-01T11:57:17;94390.50;;;30.55;27.76
10946;BME280;5525;42.648;23.368;2022-08-01T11:59:47;94390.44;;;31.17;27.57
10946;BME280;5525;42.648;23.368;2022-08-01T12:02:16;94392.72;;;30.08;28.51
10946;BME280;5525;42.648;23.368;2022-08-01T12:04:48;94378.44;;;29.07;29.92
10946;BME280;5525;42.648;23.368;2022-08-01T12:07:17;94358.97;;;28.95;30.55
10946;BME280;5525;42.648;23.368;2022-08-01T12:09:45;94396.00;;;29.04;30.84
10946;BME280;5525;42.648;23.368;2022-08-01T12:12:15;94395.97;;;28.04;31.71
10946;BME280;5525;42.648;23.368;2022-08-01T12:14:46;94387.56;;;27.79;32.72
10946;BME280;5525;42.648;23.368;2022-08-01T12:17:21;94381.41;;;27.14;33.10
10946;BME280;5525;42.648;23.368;2022-08-01T12:19:53;94352.22;;;27.10;33.04
10946;BME280;5525;42.648;23.368;2022-08-01T12:22:23;94378.69;;;27.43;33.38
10946;BME280;5525;42.648;23.368;2022-08-01T12:24:50;94356.72;;;27.20;33.58
10946;BME280;5525;42.648;23.368;2022-08-01T12:27:28;94358.94;;;27.41;34.89
10946;BME280;5525;42.648;23.368;2022-08-01T12:29:57;94384.31;;;27.68;33.68
10946;BME280;5525;42.648;23.368;2022-08-01T12:32:26;94371.19;;;27.56;33.11
10946;BME280;5525;42.648;23.368;2022-08-01T12:34:55;94384.06;;;27.62;33.30
10946;BME280;5525;42.648;23.368;2022-08-01T12:37:23;94390.66;;;27.24;33.33
10946;BME280;5525;42.648;23.368;2022-08-01T12:39:50;94385.63;;;27.19;34.05
10946;BME280;5525;42.648;23.368;2022-08-01T12:42:17;94384.47;;;26.88;34.97
10946;BME280;5525;42.648;23.368;2022-08-01T12:44:47;94380.72;;;26.94;34.87
10946;BME280;5525;42.648;23.368;2022-08-01T12:47:19;94378.50;;;26.73;35.67
10946;BME280;5525;42.648;23.368;2022-08-01T12:49:47;94328.72;;;26.37;34.67
10946;BME280;5525;42.648;23.368;2022-08-01T12:52:15;94369.81;;;27.03;35.11
10946;BME280;5525;42.648;23.368;2022-08-01T12:55:11;94367.00;;;26.91;34.52
10946;BME280;5525;42.648;23.368;2022-08-01T12:57:40;94373.75;;;26.74;35.00
10946;BME280;5525;42.648;23.368;2022-08-01T13:00:15;94363.66;;;26.96;35.62
10946;BME280;5525;42.648;23.368;2022-08-01T13:02:46;94381.22;;;27.21;35.00
10946;BME280;5525;42.648;23.368;2022-08-01T13:05:14;94351.34;;;27.13;34.16
10946;BME280;5525;42.648;23.368;2022-08-01T13:07:45;94362.72;;;27.02;34.22
10946;BME280;5525;42.648;23.368;2022-08-01T13:10:13;94367.81;;;27.20;34.41
10946;BME280;5525;42.648;23.368;2022-08-01T13:12:41;94327.06;;;26.88;33.98
10946;BME280;5525;42.648;23.368;2022-08-01T13:15:23;94352.16;;;26.97;34.25